sensor_id;sensor_type;location;lat;lon;timestamp;temperature;humidity
18794;DHT22;29610;49.022;12.114;2023-02-13T00:01:32;2.00;99.90
18794;DHT22;29610;49.022;12.114;2023-02-13T00:04:01;1.90;99.90
18794;DHT22;29610;49.022;12.114;2023-02-13T00:06:30;1.90;99.90
18794;DHT22;29610;49.022;12.114;2023-02-13T00:08:59;2.00;99.90
18794;DHT22;29610;49.022;12.114;2023-02-13T00:11:28;2.00;99.90
18794;DHT22;29610;49.022;12.114;2023-02-13T00:13:57;2.00;99.90
18794;DHT22;29610;49.022;12.114;2023-02-13T00:16:26;2.00;99.90
18794;DHT22;29610;49.022;12.114;2023-02-13T00:18:56;2.00;99.90
18794;DHT22;29610;49.022;12.114;2023-02-13T00:21:24;2.00;99.90
18794;DHT22;29610;49.022;12.114;2023-02-13T00:23:53;2.10;99.90
18794;DHT22;29610;49.022;12.114;2023-02-13T00:26:21;2.00;99.90
18794;DHT22;29610;49.022;12.114;2023-02-13T00:28:50;2.10;99.90
18794;DHT22;29610;49.022;12.114;2023-02-13T00:31:20;2.10;99.90
18794;DHT22;29610;49.022;12.114;2023-02-13T00:33:49;2.10;99.90
18794;DHT22;29610;49.022;12.114;2023-02-13T00:36:21;2.10;99.90
18794;DHT22;29610;49.022;12.114;2023-02-13T00:38:50;2.10;99.90
18794;DHT22;29610;49.022;12.114;2023-02-13T00:41:20;2.10;99.90
18794;DHT22;29610;49.022;12.114;2023-02-13T00:43:50;2.10;99.90
18794;DHT22;29610;49.022;12.114;2023-02-13T00:46:19;2.10;99.90
18794;DHT22;29610;49.022;12.114;2023-02-13T00:48:48;2.00;99.90
18794;DHT22;29610;49.022;12.114;2023-02-13T00:51:16;2.10;99.90
18794;DHT22;29610;49.022;12.114;2023-02-13T00:53:46;2.00;99.90
18794;DHT22;29610;49.022;12.114;2023-02-13T00:56:16;2.10;99.90
18794;DHT22;29610;49.022;12.114;2023-02-13T00:58:44;2.00;99.90
18794;DHT22;29610;49.022;12.114;2023-02-13T01:01:13;2.00;99.90
18794;DHT22;29610;49.022;12.114;2023-02-13T01:03:42;2.00;99.90
18794;DHT22;29610;49.022;12.114;2023-02-13T01:06:11;1.90;99.90
18794;DHT22;29610;49.022;12.114;2023-02-13T01:08:40;1.90;99.90
18794;DHT22;29610;49.022;12.114;2023-02-13T01:11:11;1.90;99.90
18794;DHT22;29610;49.022;12.114;2023-02-13T01:13:40;2.00;99.90
18794;DHT22;29610;49.022;12.114;2023-02-13T01:16:08;2.00;99.90
18794;DHT22;29610;49.022;12.114;2023-02-13T01:18:38;1.90;99.90
18794;DHT22;29610;49.022;12.114;2023-02-13T01:21:07;2.00;99.90
18794;DHT22;29610;49.022;12.114;2023-02-13T01:23:45;2.00;99.90
18794;DHT22;29610;49.022;12.114;2023-02-13T01:26:17;2.00;99.90
18794;DHT22;29610;49.022;12.114;2023-02-13T01:28:51;2.00;99.90
18794;DHT22;29610;49.022;12.114;2023-02-13T01:31:21;1.90;99.90
18794;DHT22;29610;49.022;12.114;2023-02-13T01:33:50;1.90;99.90
18794;DHT22;29610;49.022;12.114;2023-02-13T01:36:21;2.00;99.90
18794;DHT22;29610;49.022;12.114;2023-02-13T01:38:52;1.90;99.90
18794;DHT22;29610;49.022;12.114;2023-02-13T01:41:25;1.90;99.90
18794;DHT22;29610;49.022;12.114;2023-02-13T01:43:56;2.00;99.90
18794;DHT22;29610;49.022;12.114;2023-02-13T01:46:28;1.90;99.90
18794;DHT22;29610;49.022;12.114;2023-02-13T01:49:13;2.00;99.90
18794;DHT22;29610;49.022;12.114;2023-02-13T01:51:46;1.90;99.90
18794;DHT22;29610;49.022;12.114;2023-02-13T01:54:21;1.80;99.90
18794;DHT22;29610;49.022;12.114;2023-02-13T01:57:03;1.80;99.90
18794;DHT22;29610;49.022;12.114;2023-02-13T01:59:40;1.80;99.90
18794;DHT22;29610;49.022;12.114;2023-02-13T02:02:14;1.80;99.90
18794;DHT22;29610;49.022;12.114;2023-02-13T02:04:46;1.80;99.90
18794;DHT22;29610;49.022;12.114;2023-02-13T02:07:21;1.80;99.90
18794;DHT22;29610;49.022;12.114;2023-02-13T02:09:55;1.70;99.90
18794;DHT22;29610;49.022;12.114;2023-02-13T02:12:33;1.70;99.90
18794;DHT22;29610;49.022;12.114;2023-02-13T02:15:09;1.70;99.90
18794;DHT22;29610;49.022;12.114;2023-02-13T02:17:38;1.80;99.90
18794;DHT22;29610;49.022;12.114;2023-02-13T02:20:18;1.70;99.90
18794;DHT22;29610;49.022;12.114;2023-02-13T02:23:30;1.70;99.90
18794;DHT22;29610;49.022;12.114;2023-02-13T02:26:58;1.80;99.90
18794;DHT22;29610;49.022;12.114;2023-02-13T02:33:35;1.70;99.90
18794;DHT22;29610;49.022;12.114;2023-02-13T02:36:22;1.80;99.90
18794;DHT22;29610;49.022;12.114;2023-02-13T02:39:09;1.70;99.90
18794;DHT22;29610;49.022;12.114;2023-02-13T02:41:56;1.70;99.90
18794;DHT22;29610;49.022;12.114;2023-02-13T02:44:38;1.70;99.90
18794;DHT22;29610;49.022;12.114;2023-02-13T02:47:21;1.70;99.90
18794;DHT22;29610;49.022;12.114;2023-02-13T02:53:14;1.70;99.90
18794;DHT22;29610;49.022;12.114;2023-02-13T02:55:53;1.60;99.90
18794;DHT22;29610;49.022;12.114;2023-02-13T02:58:35;1.60;99.90
18794;DHT22;29610;49.022;12.114;2023-02-13T03:01:28;1.60;99.90
18794;DHT22;29610;49.022;12.114;2023-02-13T03:04:21;1.60;99.90
18794;DHT22;29610;49.022;12.114;2023-02-13T03:07:15;1.40;99.90
18794;DHT22;29610;49.022;12.114;2023-02-13T03:09:48;1.40;99.90
18794;DHT22;29610;49.022;12.114;2023-02-13T03:12:43;1.40;99.90
18794;DHT22;29610;49.022;12.114;2023-02-13T03:15:36;1.40;99.90
18794;DHT22;29610;49.022;12.114;2023-02-13T03:18:29;1.40;99.90
18794;DHT22;29610;49.022;12.114;2023-02-13T03:21:31;1.30;99.90
18794;DHT22;29610;49.022;12.114;2023-02-13T03:24:39;1.30;99.90
18794;DHT22;29610;49.022;12.114;2023-02-13T03:27:23;1.20;99.90
18794;DHT22;29610;49.022;12.114;2023-02-13T03:30:29;1.20;99.90
18794;DHT22;29610;49.022;12.114;2023-02-13T03:33:16;1.20;99.90
18794;DHT22;29610;49.022;12.114;2023-02-13T03:35:59;1.20;99.90
18794;DHT22;29610;49.022;12.114;2023-02-13T03:38:56;1.10;99.90
18794;DHT22;29610;49.022;12.114;2023-02-13T03:41:32;1.10;99.90
18794;DHT22;29610;49.022;12.114;2023-02-13T03:44:12;1.10;99.90
18794;DHT22;29610;49.022;12.114;2023-02-13T03:46:45;1.80;99.90
18794;DHT22;29610;49.022;12.114;2023-02-13T03:49:20;1.20;99.90
18794;DHT22;29610;49.022;12.114;2023-02-13T03:52:12;1.30;99.90
18794;DHT22;29610;49.022;12.114;2023-02-13T03:54:50;1.30;99.90
18794;DHT22;29610;49.022;12.114;2023-02-13T03:57:43;1.20;99.90
18794;DHT22;29610;49.022;12.114;2023-02-13T04:00:34;1.30;99.90
18794;DHT22;29610;49.022;12.114;2023-02-13T04:03:13;1.30;99.90
18794;DHT22;29610;49.022;12.114;2023-02-13T04:05:48;1.30;99.90
18794;DHT22;29610;49.022;12.114;2023-02-13T04:08:22;1.30;99.90
18794;DHT22;29610;49.022;12.114;2023-02-13T04:10:53;1.40;99.90
18794;DHT22;29610;49.022;12.114;2023-02-13T04:13:33;1.30;99.90
18794;DHT22;29610;49.022;12.114;2023-02-13T04:16:08;1.30;99.90
18794;DHT22;29610;49.022;12.114;2023-02-13T04:18:41;1.30;99.90
18794;DHT22;29610;49.022;12.114;2023-02-13T04:21:11;1.30;99.90
18794;DHT22;29610;49.022;12.114;2023-02-13T04:23:39;1.40;99.90
18794;DHT22;29610;49.022;12.114;2023-02-13T04:26:15;1.30;99.90
18794;DHT22;29610;49.022;12.114;2023-02-13T04:28:48;1.30;99.90
18794;DHT22;29610;49.022;12.114;2023-02-13T04:31:16;1.30;99.90
18794;DHT22;29610;49.022;12.114;2023-02-13T04:33:45;1.30;99.90
18794;DHT22;29610;49.022;12.114;2023-02-13T04:36:14;1.40;99.90
18794;DHT22;29610;49.022;12.114;2023-02-13T04:38:42;1.30;99.90
18794;DHT22;29610;49.022;12.114;2023-02-13T04:41:11;1.30;99.90
18794;DHT22;29610;49.022;12.114;2023-02-13T04:43:40;1.40;99.90
18794;DHT22;29610;49.022;12.114;2023-02-13T04:46:10;1.40;99.90
18794;DHT22;29610;49.022;12.114;2023-02-13T04:48:39;1.70;99.90
18794;DHT22;29610;49.022;12.114;2023-02-13T04:51:08;1.40;99.90
18794;DHT22;29610;49.022;12.114;2023-02-13T04:53:36;1.30;99.90
18794;DHT22;29610;49.022;12.114;2023-02-13T04:56:05;1.30;99.90
18794;DHT22;29610;49.022;12.114;2023-02-13T04:58:34;1.40;99.90
18794;DHT22;29610;49.022;12.114;2023-02-13T05:01:12;1.30;99.90
18794;DHT22;29610;49.022;12.114;2023-02-13T05:03:41;1.10;99.90
18794;DHT22;29610;49.022;12.114;2023-02-13T05:06:10;1.20;99.90
18794;DHT22;29610;49.022;12.114;2023-02-13T05:08:39;1.30;99.90
18794;DHT22;29610;49.022;12.114;2023-02-13T05:11:08;1.30;99.90
18794;DHT22;29610;49.022;12.114;2023-02-13T05:13:36;1.40;99.90
18794;DHT22;29610;49.022;12.114;2023-02-13T05:16:05;1.40;99.90
18794;DHT22;29610;49.022;12.114;2023-02-13T05:18:35;1.40;99.90
18794;DHT22;29610;49.022;12.114;2023-02-13T05:21:04;1.40;99.90
18794;DHT22;29610;49.022;12.114;2023-02-13T05:23:50;1.30;99.90
18794;DHT22;29610;49.022;12.114;2023-02-13T05:26:19;1.30;99.90
18794;DHT22;29610;49.022;12.114;2023-02-13T05:28:47;1.30;99.90
18794;DHT22;29610;49.022;12.114;2023-02-13T05:31:34;1.40;99.90
18794;DHT22;29610;49.022;12.114;2023-02-13T05:34:04;1.40;99.90
18794;DHT22;29610;49.022;12.114;2023-02-13T05:36:32;1.40;99.90
18794;DHT22;29610;49.022;12.114;2023-02-13T05:39:01;1.30;99.90
18794;DHT22;29610;49.022;12.114;2023-02-13T05:41:30;1.30;99.90
18794;DHT22;29610;49.022;12.114;2023-02-13T05:43:59;1.30;99.90
18794;DHT22;29610;49.022;12.114;2023-02-13T05:46:28;1.30;99.90
18794;DHT22;29610;49.022;12.114;2023-02-13T05:48:56;1.40;99.90
18794;DHT22;29610;49.022;12.114;2023-02-13T05:51:27;1.40;99.90
18794;DHT22;29610;49.022;12.114;2023-02-13T05:53:55;1.30;99.90
18794;DHT22;29610;49.022;12.114;2023-02-13T05:56:24;1.30;99.90
18794;DHT22;29610;49.022;12.114;2023-02-13T05:58:53;1.40;99.90
18794;DHT22;29610;49.022;12.114;2023-02-13T06:01:23;1.30;99.90
18794;DHT22;29610;49.022;12.114;2023-02-13T06:03:52;1.40;99.90
18794;DHT22;29610;49.022;12.114;2023-02-13T06:06:24;1.30;99.90
18794;DHT22;29610;49.022;12.114;2023-02-13T06:08:54;1.40;99.90
18794;DHT22;29610;49.022;12.114;2023-02-13T06:11:23;1.30;99.90
18794;DHT22;29610;49.022;12.114;2023-02-13T06:13:52;1.30;99.90
18794;DHT22;29610;49.022;12.114;2023-02-13T06:16:21;1.30;99.90
18794;DHT22;29610;49.022;12.114;2023-02-13T06:18:50;1.30;99.90
18794;DHT22;29610;49.022;12.114;2023-02-13T06:21:18;1.30;99.90
18794;DHT22;29610;49.022;12.114;2023-02-13T06:23:50;1.30;99.90
18794;DHT22;29610;49.022;12.114;2023-02-13T06:26:18;1.30;99.90
18794;DHT22;29610;49.022;12.114;2023-02-13T06:28:47;1.20;99.90
18794;DHT22;29610;49.022;12.114;2023-02-13T06:31:16;1.30;99.90
18794;DHT22;29610;49.022;12.114;2023-02-13T06:33:45;1.20;99.90
18794;DHT22;29610;49.022;12.114;2023-02-13T06:36:13;1.30;99.90
18794;DHT22;29610;49.022;12.114;2023-02-13T06:38:42;1.30;99.90
18794;DHT22;29610;49.022;12.114;2023-02-13T06:41:12;1.30;99.90
18794;DHT22;29610;49.022;12.114;2023-02-13T06:43:42;1.30;99.90
18794;DHT22;29610;49.022;12.114;2023-02-13T06:46:10;1.30;99.90
18794;DHT22;29610;49.022;12.114;2023-02-13T06:48:39;1.40;99.90
18794;DHT22;29610;49.022;12.114;2023-02-13T06:51:07;1.50;99.90
18794;DHT22;29610;49.022;12.114;2023-02-13T06:53:36;1.50;99.90
18794;DHT22;29610;49.022;12.114;2023-02-13T06:56:06;1.50;99.90
18794;DHT22;29610;49.022;12.114;2023-02-13T06:58:36;1.50;99.90
18794;DHT22;29610;49.022;12.114;2023-02-13T07:01:06;1.60;99.90
18794;DHT22;29610;49.022;12.114;2023-02-13T07:03:35;1.50;99.90
18794;DHT22;29610;49.022;12.114;2023-02-13T07:06:04;1.60;99.90
18794;DHT22;29610;49.022;12.114;2023-02-13T07:08:33;1.60;99.90
18794;DHT22;29610;49.022;12.114;2023-02-13T07:11:02;1.60;99.90
18794;DHT22;29610;49.022;12.114;2023-02-13T07:13:31;1.70;99.90
18794;DHT22;29610;49.022;12.114;2023-02-13T07:16:01;1.70;99.90
18794;DHT22;29610;49.022;12.114;2023-02-13T07:18:29;1.70;99.90
18794;DHT22;29610;49.022;12.114;2023-02-13T07:20:58;1.80;99.90
18794;DHT22;29610;49.022;12.114;2023-02-13T07:23:27;1.80;99.90
18794;DHT22;29610;49.022;12.114;2023-02-13T07:25:58;1.90;99.90
18794;DHT22;29610;49.022;12.114;2023-02-13T07:28:28;1.90;99.90
18794;DHT22;29610;49.022;12.114;2023-02-13T07:30:58;1.90;99.90
18794;DHT22;29610;49.022;12.114;2023-02-13T07:33:34;2.00;99.90
18794;DHT22;29610;49.022;12.114;2023-02-13T07:36:04;2.10;99.90
18794;DHT22;29610;49.022;12.114;2023-02-13T07:38:33;2.10;99.90
18794;DHT22;29610;49.022;12.114;2023-02-13T07:41:03;2.10;99.90
18794;DHT22;29610;49.022;12.114;2023-02-13T07:43:32;2.30;99.90
18794;DHT22;29610;49.022;12.114;2023-02-13T07:46:01;2.20;99.90
18794;DHT22;29610;49.022;12.114;2023-02-13T07:48:32;2.30;99.90
18794;DHT22;29610;49.022;12.114;2023-02-13T07:51:02;2.30;99.90
18794;DHT22;29610;49.022;12.114;2023-02-13T07:53:32;2.30;99.90
18794;DHT22;29610;49.022;12.114;2023-02-13T07:56:04;2.50;99.90
18794;DHT22;29610;49.022;12.114;2023-02-13T07:58:34;2.40;99.90
18794;DHT22;29610;49.022;12.114;2023-02-13T08:01:07;2.50;99.90
18794;DHT22;29610;49.022;12.114;2023-02-13T08:03:38;2.50;99.90
18794;DHT22;29610;49.022;12.114;2023-02-13T08:06:07;2.50;99.90
18794;DHT22;29610;49.022;12.114;2023-02-13T08:08:37;2.50;99.90
18794;DHT22;29610;49.022;12.114;2023-02-13T08:11:09;2.60;99.90
18794;DHT22;29610;49.022;12.114;2023-02-13T08:14:07;2.60;99.90
18794;DHT22;29610;49.022;12.114;2023-02-13T08:16:36;2.60;99.90
18794;DHT22;29610;49.022;12.114;2023-02-13T08:19:06;1.70;99.90
18794;DHT22;29610;49.022;12.114;2023-02-13T08:21:35;2.90;99.90
18794;DHT22;29610;49.022;12.114;2023-02-13T08:24:04;3.10;99.90
18794;DHT22;29610;49.022;12.114;2023-02-13T08:26:34;3.10;99.90
18794;DHT22;29610;49.022;12.114;2023-02-13T08:29:03;3.10;99.90
18794;DHT22;29610;49.022;12.114;2023-02-13T08:31:33;3.10;99.90
18794;DHT22;29610;49.022;12.114;2023-02-13T08:34:02;3.10;99.90
18794;DHT22;29610;49.022;12.114;2023-02-13T08:36:32;3.20;99.90
18794;DHT22;29610;49.022;12.114;2023-02-13T08:39:01;3.10;99.90
18794;DHT22;29610;49.022;12.114;2023-02-13T08:41:30;3.20;99.90
18794;DHT22;29610;49.022;12.114;2023-02-13T08:43:58;3.30;99.90
18794;DHT22;29610;49.022;12.114;2023-02-13T08:46:27;3.40;99.90
18794;DHT22;29610;49.022;12.114;2023-02-13T08:48:56;3.50;99.90
18794;DHT22;29610;49.022;12.114;2023-02-13T08:51:24;3.80;99.90
18794;DHT22;29610;49.022;12.114;2023-02-13T08:53:55;3.70;99.90
18794;DHT22;29610;49.022;12.114;2023-02-13T08:56:24;3.80;99.90
18794;DHT22;29610;49.022;12.114;2023-02-13T08:58:53;4.10;99.90
18794;DHT22;29610;49.022;12.114;2023-02-13T09:01:22;4.00;99.90
18794;DHT22;29610;49.022;12.114;2023-02-13T09:03:51;3.90;99.90
18794;DHT22;29610;49.022;12.114;2023-02-13T09:06:19;3.90;99.90
18794;DHT22;29610;49.022;12.114;2023-02-13T09:08:49;4.10;99.90
18794;DHT22;29610;49.022;12.114;2023-02-13T09:11:19;4.20;99.90
18794;DHT22;29610;49.022;12.114;2023-02-13T09:13:52;4.40;99.90
18794;DHT22;29610;49.022;12.114;2023-02-13T09:16:21;4.60;99.90
18794;DHT22;29610;49.022;12.114;2023-02-13T09:18:50;4.60;99.90
18794;DHT22;29610;49.022;12.114;2023-02-13T09:21:21;4.60;99.90
18794;DHT22;29610;49.022;12.114;2023-02-13T09:23:50;4.60;99.90
18794;DHT22;29610;49.022;12.114;2023-02-13T09:26:23;4.70;99.90
18794;DHT22;29610;49.022;12.114;2023-02-13T09:28:51;4.90;99.90
18794;DHT22;29610;49.022;12.114;2023-02-13T09:31:20;4.60;99.90
18794;DHT22;29610;49.022;12.114;2023-02-13T09:33:55;4.90;99.90
18794;DHT22;29610;49.022;12.114;2023-02-13T09:36:24;5.10;99.90
18794;DHT22;29610;49.022;12.114;2023-02-13T09:38:54;5.20;99.90
18794;DHT22;29610;49.022;12.114;2023-02-13T09:41:27;5.30;99.90
18794;DHT22;29610;49.022;12.114;2023-02-13T09:44:00;5.30;99.90
18794;DHT22;29610;49.022;12.114;2023-02-13T09:46:35;5.40;99.90
18794;DHT22;29610;49.022;12.114;2023-02-13T09:49:08;5.60;99.90
18794;DHT22;29610;49.022;12.114;2023-02-13T09:51:42;5.70;99.90
18794;DHT22;29610;49.022;12.114;2023-02-13T09:54:15;5.70;99.90
18794;DHT22;29610;49.022;12.114;2023-02-13T09:56:50;5.70;99.90
18794;DHT22;29610;49.022;12.114;2023-02-13T09:59:38;6.00;99.90
18794;DHT22;29610;49.022;12.114;2023-02-13T10:02:28;6.00;99.90
18794;DHT22;29610;49.022;12.114;2023-02-13T10:05:16;6.10;99.90
18794;DHT22;29610;49.022;12.114;2023-02-13T10:08:06;6.10;99.90
18794;DHT22;29610;49.022;12.114;2023-02-13T10:10:49;6.20;99.90
18794;DHT22;29610;49.022;12.114;2023-02-13T10:13:30;6.30;99.90
18794;DHT22;29610;49.022;12.114;2023-02-13T10:16:14;6.30;99.90
18794;DHT22;29610;49.022;12.114;2023-02-13T10:18:49;6.30;99.90
18794;DHT22;29610;49.022;12.114;2023-02-13T10:21:25;6.50;99.90
18794;DHT22;29610;49.022;12.114;2023-02-13T10:23:59;6.60;99.90
18794;DHT22;29610;49.022;12.114;2023-02-13T10:26:37;6.70;99.90
18794;DHT22;29610;49.022;12.114;2023-02-13T10:29:18;6.50;99.90
18794;DHT22;29610;49.022;12.114;2023-02-13T10:32:10;6.40;99.90
18794;DHT22;29610;49.022;12.114;2023-02-13T10:34:44;6.60;99.90
18794;DHT22;29610;49.022;12.114;2023-02-13T10:37:15;6.60;99.90
18794;DHT22;29610;49.022;12.114;2023-02-13T10:39:47;6.60;99.90
18794;DHT22;29610;49.022;12.114;2023-02-13T10:42:20;6.70;99.90
18794;DHT22;29610;49.022;12.114;2023-02-13T10:45:02;6.70;99.90
18794;DHT22;29610;49.022;12.114;2023-02-13T10:47:57;6.80;99.90
18794;DHT22;29610;49.022;12.114;2023-02-13T10:50:40;6.80;99.90
18794;DHT22;29610;49.022;12.114;2023-02-13T10:53:19;6.90;99.90
18794;DHT22;29610;49.022;12.114;2023-02-13T10:56:14;6.90;99.90
18794;DHT22;29610;49.022;12.114;2023-02-13T10:59:00;6.80;99.90
18794;DHT22;29610;49.022;12.114;2023-02-13T11:01:40;6.90;99.90
18794;DHT22;29610;49.022;12.114;2023-02-13T11:04:17;6.80;99.90
18794;DHT22;29610;49.022;12.114;2023-02-13T11:06:54;6.80;99.90
18794;DHT22;29610;49.022;12.114;2023-02-13T11:09:25;6.70;99.90
18794;DHT22;29610;49.022;12.114;2023-02-13T11:11:55;6.70;99.90
18794;DHT22;29610;49.022;12.114;2023-02-13T11:14:25;6.60;99.90
18794;DHT22;29610;49.022;12.114;2023-02-13T11:16:58;6.80;99.90
18794;DHT22;29610;49.022;12.114;2023-02-13T11:19:31;6.80;99.90
18794;DHT22;29610;49.022;12.114;2023-02-13T11:22:04;6.70;99.90
18794;DHT22;29610;49.022;12.114;2023-02-13T11:24:35;6.70;99.90
18794;DHT22;29610;49.022;12.114;2023-02-13T11:27:09;6.80;99.90
18794;DHT22;29610;49.022;12.114;2023-02-13T11:29:51;6.80;99.90
18794;DHT22;29610;49.022;12.114;2023-02-13T11:32:24;6.70;99.90
18794;DHT22;29610;49.022;12.114;2023-02-13T11:34:54;6.80;99.90
18794;DHT22;29610;49.022;12.114;2023-02-13T11:37:26;6.80;99.90
18794;DHT22;29610;49.022;12.114;2023-02-13T11:39:57;6.90;99.90
18794;DHT22;29610;49.022;12.114;2023-02-13T11:42:29;6.80;99.90
18794;DHT22;29610;49.022;12.114;2023-02-13T11:45:03;6.70;99.90
18794;DHT22;29610;49.022;12.114;2023-02-13T11:47:38;6.80;99.90
18794;DHT22;29610;49.022;12.114;2023-02-13T11:50:20;6.60;99.90
18794;DHT22;29610;49.022;12.114;2023-02-13T11:52:56;6.80;99.90
18794;DHT22;29610;49.022;12.114;2023-02-13T11:55:30;7.00;99.90
18794;DHT22;29610;49.022;12.114;2023-02-13T11:58:01;7.00;99.90
18794;DHT22;29610;49.022;12.114;2023-02-13T12:00:34;6.60;99.90
18794;DHT22;29610;49.022;12.114;2023-02-13T12:03:27;7.30;99.90
18794;DHT22;29610;49.022;12.114;2023-02-13T12:06:04;7.10;99.90
18794;DHT22;29610;49.022;12.114;2023-02-13T12:08:40;7.10;99.90
18794;DHT22;29610;49.022;12.114;2023-02-13T12:11:20;7.10;99.90
18794;DHT22;29610;49.022;12.114;2023-02-13T12:13:51;7.30;99.90
18794;DHT22;29610;49.022;12.114;2023-02-13T12:16:28;7.30;99.90
18794;DHT22;29610;49.022;12.114;2023-02-13T12:19:04;7.20;99.90
18794;DHT22;29610;49.022;12.114;2023-02-13T12:21:51;7.20;99.90
18794;DHT22;29610;49.022;12.114;2023-02-13T12:24:46;7.20;99.90
18794;DHT22;29610;49.022;12.114;2023-02-13T12:27:31;7.20;99.90
18794;DHT22;29610;49.022;12.114;2023-02-13T12:30:33;7.20;99.90
18794;DHT22;29610;49.022;12.114;2023-02-13T12:33:20;7.30;99.90
18794;DHT22;29610;49.022;12.114;2023-02-13T12:36:08;7.40;99.90
18794;DHT22;29610;49.022;12.114;2023-02-13T12:38:53;7.30;99.90
18794;DHT22;29610;49.022;12.114;2023-02-13T12:41:40;7.50;99.70
18794;DHT22;29610;49.022;12.114;2023-02-13T12:47:28;7.50;99.90
18794;DHT22;29610;49.022;12.114;2023-02-13T12:53:23;7.70;99.50
18794;DHT22;29610;49.022;12.114;2023-02-13T12:56:20;7.90;99.50
18794;DHT22;29610;49.022;12.114;2023-02-13T12:59:06;7.60;99.40
18794;DHT22;29610;49.022;12.114;2023-02-13T13:02:08;7.70;99.10
18794;DHT22;29610;49.022;12.114;2023-02-13T13:05:06;7.70;99.10
18794;DHT22;29610;49.022;12.114;2023-02-13T13:08:03;7.50;99.00
18794;DHT22;29610;49.022;12.114;2023-02-13T13:10:50;7.60;99.10
18794;DHT22;29610;49.022;12.114;2023-02-13T13:13:36;7.60;99.00
18794;DHT22;29610;49.022;12.114;2023-02-13T13:16:22;7.50;99.10
18794;DHT22;29610;49.022;12.114;2023-02-13T13:19:07;7.70;99.20
18794;DHT22;29610;49.022;12.114;2023-02-13T13:21:49;7.70;98.70
18794;DHT22;29610;49.022;12.114;2023-02-13T13:24:32;7.80;99.10
18794;DHT22;29610;49.022;12.114;2023-02-13T13:27:18;7.70;98.70
18794;DHT22;29610;49.022;12.114;2023-02-13T13:29:53;7.70;98.90
18794;DHT22;29610;49.022;12.114;2023-02-13T13:32:25;7.70;98.80
18794;DHT22;29610;49.022;12.114;2023-02-13T13:34:57;7.90;99.00
18794;DHT22;29610;49.022;12.114;2023-02-13T13:37:33;7.90;99.00
18794;DHT22;29610;49.022;12.114;2023-02-13T13:40:23;7.90;99.20
18794;DHT22;29610;49.022;12.114;2023-02-13T13:43:01;7.90;98.60
18794;DHT22;29610;49.022;12.114;2023-02-13T13:45:41;7.80;98.60
18794;DHT22;29610;49.022;12.114;2023-02-13T13:48:38;7.80;98.60
18794;DHT22;29610;49.022;12.114;2023-02-13T13:51:20;7.80;98.30
18794;DHT22;29610;49.022;12.114;2023-02-13T13:54:21;7.70;98.50
18794;DHT22;29610;49.022;12.114;2023-02-13T13:57:10;7.50;98.40
18794;DHT22;29610;49.022;12.114;2023-02-13T13:59:59;7.30;98.90
18794;DHT22;29610;49.022;12.114;2023-02-13T14:03:21;7.40;99.10
18794;DHT22;29610;49.022;12.114;2023-02-13T14:06:08;7.50;99.00
18794;DHT22;29610;49.022;12.114;2023-02-13T14:09:06;7.40;99.00
18794;DHT22;29610;49.022;12.114;2023-02-13T14:15:48;7.40;99.30
18794;DHT22;29610;49.022;12.114;2023-02-13T14:18:20;7.20;98.80
18794;DHT22;29610;49.022;12.114;2023-02-13T14:20:52;7.10;99.20
18794;DHT22;29610;49.022;12.114;2023-02-13T14:23:43;7.30;99.40
18794;DHT22;29610;49.022;12.114;2023-02-13T14:26:27;7.20;99.20
18794;DHT22;29610;49.022;12.114;2023-02-13T14:29:30;7.30;99.10
18794;DHT22;29610;49.022;12.114;2023-02-13T14:32:19;7.20;99.20
18794;DHT22;29610;49.022;12.114;2023-02-13T14:34:55;7.10;99.20
18794;DHT22;29610;49.022;12.114;2023-02-13T14:37:35;7.00;99.40
18794;DHT22;29610;49.022;12.114;2023-02-13T14:40:41;7.00;99.60
18794;DHT22;29610;49.022;12.114;2023-02-13T14:43:35;6.80;99.70
18794;DHT22;29610;49.022;12.114;2023-02-13T14:46:15;6.80;99.80
18794;DHT22;29610;49.022;12.114;2023-02-13T14:48:56;6.80;99.80
18794;DHT22;29610;49.022;12.114;2023-02-13T14:51:34;6.80;99.90
18794;DHT22;29610;49.022;12.114;2023-02-13T14:54:13;6.80;99.90
18794;DHT22;29610;49.022;12.114;2023-02-13T14:56:50;6.80;99.90
18794;DHT22;29610;49.022;12.114;2023-02-13T14:59:23;6.70;99.90
18794;DHT22;29610;49.022;12.114;2023-02-13T15:01:59;6.70;99.90
18794;DHT22;29610;49.022;12.114;2023-02-13T15:04:37;6.70;99.90
18794;DHT22;29610;49.022;12.114;2023-02-13T15:07:14;6.70;99.80
18794;DHT22;29610;49.022;12.114;2023-02-13T15:09:49;6.60;99.90
18794;DHT22;29610;49.022;12.114;2023-02-13T15:12:25;6.50;99.90
18794;DHT22;29610;49.022;12.114;2023-02-13T15:14:56;6.40;99.90
18794;DHT22;29610;49.022;12.114;2023-02-13T15:17:30;6.40;99.90
18794;DHT22;29610;49.022;12.114;2023-02-13T15:20:08;6.30;99.90
18794;DHT22;29610;49.022;12.114;2023-02-13T15:22:48;6.10;99.90
18794;DHT22;29610;49.022;12.114;2023-02-13T15:25:22;6.00;99.90
18794;DHT22;29610;49.022;12.114;2023-02-13T15:27:56;6.00;99.90
18794;DHT22;29610;49.022;12.114;2023-02-13T15:30:28;5.90;99.90
18794;DHT22;29610;49.022;12.114;2023-02-13T15:33:01;5.80;99.90
18794;DHT22;29610;49.022;12.114;2023-02-13T15:35:32;5.80;99.90
18794;DHT22;29610;49.022;12.114;2023-02-13T15:38:17;5.80;99.90
18794;DHT22;29610;49.022;12.114;2023-02-13T15:40:50;5.70;99.90
18794;DHT22;29610;49.022;12.114;2023-02-13T15:43:27;5.60;99.90
18794;DHT22;29610;49.022;12.114;2023-02-13T15:46:02;5.50;99.90
18794;DHT22;29610;49.022;12.114;2023-02-13T15:48:34;5.40;99.90
18794;DHT22;29610;49.022;12.114;2023-02-13T15:51:03;5.40;99.90
18794;DHT22;29610;49.022;12.114;2023-02-13T15:53:33;5.40;99.90
18794;DHT22;29610;49.022;12.114;2023-02-13T15:56:03;5.30;99.90
18794;DHT22;29610;49.022;12.114;2023-02-13T15:58:33;5.20;99.90
18794;DHT22;29610;49.022;12.114;2023-02-13T16:01:05;5.10;99.90
18794;DHT22;29610;49.022;12.114;2023-02-13T16:03:39;5.00;99.90
18794;DHT22;29610;49.022;12.114;2023-02-13T16:06:12;5.00;99.90
18794;DHT22;29610;49.022;12.114;2023-02-13T16:08:44;5.00;99.90
18794;DHT22;29610;49.022;12.114;2023-02-13T16:11:24;4.90;99.90
18794;DHT22;29610;49.022;12.114;2023-02-13T16:14:01;4.80;99.90
18794;DHT22;29610;49.022;12.114;2023-02-13T16:16:40;4.80;99.90
18794;DHT22;29610;49.022;12.114;2023-02-13T16:19:22;4.70;99.90
18794;DHT22;29610;49.022;12.114;2023-02-13T16:22:24;4.70;99.90
18794;DHT22;29610;49.022;12.114;2023-02-13T16:25:09;4.50;99.90
18794;DHT22;29610;49.022;12.114;2023-02-13T16:27:49;4.50;99.90
18794;DHT22;29610;49.022;12.114;2023-02-13T16:30:30;4.50;99.90
18794;DHT22;29610;49.022;12.114;2023-02-13T16:33:26;4.40;99.90
18794;DHT22;29610;49.022;12.114;2023-02-13T16:35:59;4.40;99.90
18794;DHT22;29610;49.022;12.114;2023-02-13T16:38:45;4.40;99.90
18794;DHT22;29610;49.022;12.114;2023-02-13T16:41:31;4.30;99.90
18794;DHT22;29610;49.022;12.114;2023-02-13T16:44:00;4.30;99.90